createdAt,value
2023-05-13T00:02:16.833Z,8.69
2023-05-13T00:04:43.826Z,8.79
2023-05-13T00:07:10.786Z,9.01
2023-05-13T00:09:37.668Z,8.89
2023-05-13T00:12:04.988Z,8.74
2023-05-13T00:14:32.186Z,8.80
2023-05-13T00:16:59.745Z,8.58
2023-05-13T00:19:26.689Z,8.51
2023-05-13T00:21:53.623Z,8.80
2023-05-13T00:24:20.794Z,8.68
2023-05-13T00:26:47.982Z,8.75
2023-05-13T00:29:14.971Z,8.69
2023-05-13T00:31:42.082Z,8.91
2023-05-13T00:34:09.071Z,8.89
2023-05-13T00:36:36.121Z,8.51
2023-05-13T00:39:03.908Z,8.61
2023-05-13T00:41:30.976Z,8.68
2023-05-13T00:43:57.937Z,8.74
2023-05-13T00:46:25.699Z,8.56
2023-05-13T00:48:53.213Z,8.47
2023-05-13T00:51:20.212Z,8.78
2023-05-13T00:53:47.548Z,8.53
2023-05-13T00:56:18.236Z,8.65
2023-05-13T00:58:45.232Z,8.30
2023-05-13T01:01:41.234Z,8.65
2023-05-13T01:04:26.152Z,8.46
2023-05-13T01:07:12.811Z,8.69
2023-05-13T01:09:55.269Z,7.85
2023-05-13T01:12:31.085Z,8.34
2023-05-13T01:15:11.569Z,8.29
2023-05-13T01:17:55.237Z,8.51
2023-05-13T01:20:24.775Z,8.26
2023-05-13T01:22:52.670Z,8.08
2023-05-13T01:25:19.699Z,8.39
2023-05-13T01:27:46.853Z,8.13
2023-05-13T01:30:16.883Z,8.49
2023-05-13T01:32:44.844Z,8.31
2023-05-13T01:35:12.622Z,8.46
2023-05-13T01:37:44.647Z,8.36
2023-05-13T01:40:28.167Z,8.12
2023-05-13T01:43:02.312Z,7.89
2023-05-13T01:45:30.307Z,8.29
2023-05-13T01:47:57.896Z,8.22
2023-05-13T01:50:26.805Z,8.07
2023-05-13T01:52:53.924Z,7.98
2023-05-13T01:55:21.085Z,7.46
2023-05-13T01:57:49.311Z,8.18
2023-05-13T02:00:16.800Z,8.08
2023-05-13T02:02:43.783Z,8.04
2023-05-13T02:05:10.904Z,8.03
2023-05-13T02:07:38.464Z,7.86
2023-05-13T02:10:06.447Z,7.86
2023-05-13T02:12:33.619Z,7.99
2023-05-13T02:15:01.411Z,8.02
2023-05-13T02:17:30.802Z,8.00
2023-05-13T02:19:57.776Z,7.95
2023-05-13T02:22:24.888Z,7.93
2023-05-13T02:24:51.828Z,7.43
2023-05-13T02:27:18.832Z,7.09
2023-05-13T02:29:46.207Z,7.59
2023-05-13T02:32:13.393Z,7.52
2023-05-13T02:34:40.411Z,7.62
2023-05-13T02:37:07.445Z,7.85
2023-05-13T02:39:40.811Z,7.44
2023-05-13T02:42:08.350Z,7.58
2023-05-13T02:44:35.664Z,7.53
2023-05-13T02:47:02.786Z,7.80
2023-05-13T02:49:30.032Z,7.54
2023-05-13T02:51:57.045Z,7.48
2023-05-13T02:54:31.244Z,7.48
2023-05-13T02:56:58.200Z,7.19
2023-05-13T02:59:25.632Z,7.14
2023-05-13T03:01:52.680Z,7.60
2023-05-13T03:04:19.720Z,7.57
2023-05-13T03:06:47.534Z,7.40
2023-05-13T03:09:14.557Z,7.29
2023-05-13T03:11:41.522Z,6.60
2023-05-13T03:14:08.476Z,7.16
2023-05-13T03:16:35.581Z,6.62
2023-05-13T03:19:02.919Z,7.12
2023-05-13T03:21:29.975Z,7.20
2023-05-13T03:23:57.178Z,6.72
2023-05-13T03:26:25.000Z,6.95
2023-05-13T03:28:52.072Z,6.84
2023-05-13T03:31:19.646Z,6.69
2023-05-13T03:33:46.821Z,6.59
2023-05-13T03:36:14.758Z,7.15
2023-05-13T03:38:41.814Z,7.05
2023-05-13T03:41:08.881Z,7.05
2023-05-13T03:43:36.081Z,7.34
2023-05-13T03:46:07.735Z,7.28
2023-05-13T03:48:34.892Z,6.97
2023-05-13T03:51:02.972Z,7.52
2023-05-13T03:53:30.522Z,7.34
2023-05-13T03:55:58.090Z,7.44
2023-05-13T03:58:27.768Z,7.67
2023-05-13T04:00:54.804Z,7.74
2023-05-13T04:03:21.952Z,7.78
2023-05-13T04:05:49.903Z,7.88
2023-05-13T04:08:18.200Z,7.54
2023-05-13T04:10:45.271Z,8.00
2023-05-13T04:13:12.286Z,8.06
2023-05-13T04:15:39.592Z,7.86
2023-05-13T04:18:07.244Z,7.68
2023-05-13T04:20:35.236Z,7.90
2023-05-13T04:23:02.353Z,8.00
2023-05-13T04:25:29.997Z,8.26
2023-05-13T04:27:57.042Z,7.77
2023-05-13T04:30:29.762Z,7.57
2023-05-13T04:32:57.568Z,7.74
2023-05-13T04:35:24.967Z,8.16
2023-05-13T04:37:56.675Z,8.02
2023-05-13T04:40:23.981Z,8.43
2023-05-13T04:42:55.194Z,8.51
2023-05-13T04:45:32.855Z,8.11
2023-05-13T04:48:01.027Z,8.65
2023-05-13T04:50:28.348Z,8.60
2023-05-13T04:52:56.916Z,8.79
2023-05-13T04:55:26.001Z,8.87
2023-05-13T04:57:55.261Z,8.69
2023-05-13T05:00:22.604Z,8.82
2023-05-13T05:02:51.456Z,8.78
2023-05-13T05:05:18.795Z,8.93
2023-05-13T05:07:46.496Z,9.14
2023-05-13T05:10:15.438Z,9.19
2023-05-13T05:12:48.685Z,9.17
2023-05-13T05:15:16.068Z,9.22
2023-05-13T05:17:46.298Z,8.70
2023-05-13T05:20:13.778Z,9.08
2023-05-13T05:22:42.378Z,9.04
2023-05-13T05:25:11.877Z,9.20
2023-05-13T05:27:39.238Z,9.13
2023-05-13T05:30:07.379Z,9.18
2023-05-13T05:32:36.086Z,9.24
2023-05-13T05:35:05.048Z,8.96
2023-05-13T05:37:33.452Z,9.06
2023-05-13T05:40:01.014Z,8.78
2023-05-13T05:42:28.964Z,9.54
2023-05-13T05:44:56.286Z,9.59
2023-05-13T05:47:23.975Z,9.07
2023-05-13T05:49:51.364Z,9.66
2023-05-13T05:52:18.961Z,9.28
2023-05-13T05:54:46.067Z,9.87
2023-05-13T05:57:13.131Z,9.98
2023-05-13T05:59:40.373Z,10.02
2023-05-13T06:02:07.906Z,10.14
2023-05-13T06:04:35.881Z,10.27
2023-05-13T06:07:03.039Z,10.05
2023-05-13T06:09:30.548Z,10.14
2023-05-13T06:11:57.546Z,10.56
2023-05-13T06:14:24.537Z,10.28
2023-05-13T06:16:53.534Z,9.97
2023-05-13T06:19:21.733Z,10.83
2023-05-13T06:21:48.862Z,10.85
2023-05-13T06:24:15.922Z,10.48
2023-05-13T06:26:44.363Z,10.51
2023-05-13T06:29:14.244Z,10.70
2023-05-13T06:31:41.309Z,10.97
2023-05-13T06:34:08.658Z,11.18
2023-05-13T06:36:35.925Z,11.28
2023-05-13T06:39:05.373Z,11.32
2023-05-13T06:41:34.045Z,11.20
2023-05-13T06:44:08.025Z,11.54
2023-05-13T06:46:38.985Z,11.02
2023-05-13T06:49:06.743Z,11.64
2023-05-13T06:51:35.004Z,11.85
2023-05-13T06:54:02.028Z,11.89
2023-05-13T06:56:30.351Z,11.68
2023-05-13T06:58:57.460Z,12.10
2023-05-13T07:01:24.363Z,12.21
2023-05-13T07:03:51.470Z,12.33
2023-05-13T07:06:18.669Z,12.53
2023-05-13T07:08:45.653Z,12.58
2023-05-13T07:11:12.753Z,12.42
2023-05-13T07:13:40.126Z,12.54
2023-05-13T07:16:07.434Z,12.79
2023-05-13T07:18:34.843Z,12.72
2023-05-13T07:21:01.834Z,12.82
2023-05-13T07:23:31.123Z,13.03
2023-05-13T07:25:58.176Z,12.99
2023-05-13T07:28:25.299Z,13.35
2023-05-13T07:30:53.733Z,13.23
2023-05-13T07:33:20.964Z,13.48
2023-05-13T07:35:48.115Z,13.36
2023-05-13T07:38:15.498Z,13.74
2023-05-13T07:40:42.520Z,13.60
2023-05-13T07:43:09.789Z,13.78
2023-05-13T07:45:36.917Z,13.95
2023-05-13T07:48:04.142Z,13.64
2023-05-13T07:50:31.803Z,13.49
2023-05-13T07:52:58.919Z,14.13
2023-05-13T07:55:27.644Z,13.83
2023-05-13T07:57:54.650Z,13.92
2023-05-13T08:00:21.699Z,13.67
2023-05-13T08:02:48.715Z,14.06
2023-05-13T08:05:15.878Z,14.24
2023-05-13T08:07:45.940Z,14.28
2023-05-13T08:10:12.942Z,14.20
2023-05-13T08:12:40.686Z,14.41
2023-05-13T08:15:08.326Z,14.36
2023-05-13T08:17:35.386Z,14.11
2023-05-13T08:20:03.717Z,13.90
2023-05-13T08:22:31.109Z,13.73
2023-05-13T08:25:01.166Z,13.89
2023-05-13T08:27:28.180Z,13.87
2023-05-13T08:29:55.209Z,14.40
2023-05-13T08:32:22.293Z,14.49
2023-05-13T08:34:50.684Z,14.44
2023-05-13T08:37:17.747Z,14.38
2023-05-13T08:39:44.907Z,13.96
2023-05-13T08:42:12.529Z,14.48
2023-05-13T08:44:42.943Z,14.27
2023-05-13T08:47:36.937Z,14.47
2023-05-13T08:50:04.486Z,14.42
2023-05-13T08:52:31.938Z,14.24
2023-05-13T08:55:01.188Z,14.70
2023-05-13T08:57:28.502Z,14.69
2023-05-13T08:59:55.697Z,14.34
2023-05-13T09:02:23.542Z,14.10
2023-05-13T09:04:53.775Z,14.63
2023-05-13T09:07:23.908Z,14.77
2023-05-13T09:09:51.495Z,14.50
2023-05-13T09:12:56.076Z,14.85
2023-05-13T09:15:25.500Z,14.70
2023-05-13T09:18:05.348Z,14.61
2023-05-13T09:20:33.478Z,14.82
2023-05-13T09:23:04.172Z,14.46
2023-05-13T09:25:32.114Z,14.71
2023-05-13T09:28:03.511Z,14.72
2023-05-13T09:30:35.846Z,14.90
2023-05-13T09:33:13.860Z,14.48
2023-05-13T09:35:43.630Z,14.96
2023-05-13T09:38:21.697Z,15.00
2023-05-13T09:40:52.444Z,14.98
2023-05-13T09:43:24.763Z,14.45
2023-05-13T09:45:56.229Z,15.09
2023-05-13T09:48:26.278Z,14.78
2023-05-13T09:50:53.836Z,15.18
2023-05-13T09:53:21.396Z,15.14
2023-05-13T09:55:50.101Z,14.89
2023-05-13T09:58:17.188Z,15.20
2023-05-13T10:00:44.809Z,15.26
2023-05-13T10:03:12.228Z,15.19
2023-05-13T10:05:41.142Z,15.35
2023-05-13T10:08:12.493Z,15.30
2023-05-13T10:10:40.925Z,14.89
2023-05-13T10:13:14.718Z,15.29
2023-05-13T10:15:50.356Z,15.63
2023-05-13T10:18:18.964Z,15.78
2023-05-13T10:20:47.059Z,15.80
2023-05-13T10:23:14.113Z,15.35
2023-05-13T10:25:42.906Z,15.89
2023-05-13T10:28:10.969Z,15.70
2023-05-13T10:30:39.177Z,15.56
2023-05-13T10:33:06.436Z,16.00
2023-05-13T10:35:43.081Z,15.85
2023-05-13T10:38:25.252Z,16.14
2023-05-13T10:41:10.547Z,16.19
2023-05-13T10:43:38.060Z,16.16
2023-05-13T10:46:07.783Z,16.23
2023-05-13T10:48:59.559Z,16.22
2023-05-13T10:51:27.343Z,15.83
2023-05-13T10:53:56.609Z,16.18
2023-05-13T10:56:25.839Z,16.02
2023-05-13T10:59:01.522Z,16.32
2023-05-13T11:01:46.841Z,16.17
2023-05-13T11:04:17.259Z,16.33
2023-05-13T11:06:48.841Z,16.29
2023-05-13T11:09:30.851Z,16.06
2023-05-13T11:12:01.459Z,15.78
2023-05-13T11:14:31.116Z,16.15
2023-05-13T11:17:01.680Z,16.33
2023-05-13T11:19:28.637Z,16.34
2023-05-13T11:21:57.929Z,16.16
2023-05-13T11:24:26.657Z,16.17
2023-05-13T11:26:59.218Z,15.98
2023-05-13T11:29:36.434Z,16.13
2023-05-13T11:32:05.631Z,15.85
2023-05-13T11:34:34.473Z,15.97
2023-05-13T11:37:04.499Z,16.06
2023-05-13T11:39:33.181Z,15.90
2023-05-13T11:42:05.521Z,15.76
2023-05-13T11:44:34.521Z,15.72
2023-05-13T11:47:06.235Z,15.91
2023-05-13T11:49:40.143Z,15.82
2023-05-13T11:52:07.100Z,15.80
2023-05-13T11:54:45.309Z,15.15
2023-05-13T11:57:18.145Z,15.77
2023-05-13T12:00:11.022Z,15.96
2023-05-13T12:02:40.888Z,15.80
2023-05-13T12:05:09.750Z,15.94
2023-05-13T12:07:38.157Z,16.15
2023-05-13T12:10:07.292Z,16.36
2023-05-13T12:12:39.225Z,16.14
2023-05-13T12:15:10.984Z,16.47
2023-05-13T12:17:38.837Z,16.27
2023-05-13T12:20:09.902Z,16.24
2023-05-13T12:22:57.417Z,16.38
2023-05-13T12:25:53.706Z,16.39
2023-05-13T12:28:22.081Z,16.48
2023-05-13T12:30:59.143Z,16.66
2023-05-13T12:33:42.638Z,16.80
2023-05-13T12:36:29.244Z,16.92
2023-05-13T12:39:00.386Z,16.78
2023-05-13T12:41:31.070Z,17.02
2023-05-13T12:44:05.223Z,17.10
2023-05-13T12:46:32.863Z,16.68
2023-05-13T12:49:02.220Z,16.91
2023-05-13T12:51:30.277Z,17.04
2023-05-13T12:53:58.055Z,16.72
2023-05-13T12:56:26.482Z,16.93
2023-05-13T12:58:54.500Z,16.82
2023-05-13T13:01:22.289Z,16.81
2023-05-13T13:03:49.607Z,16.72
2023-05-13T13:06:16.951Z,16.51
2023-05-13T13:08:44.019Z,16.79
2023-05-13T13:11:14.959Z,16.49
2023-05-13T13:13:43.443Z,16.60
2023-05-13T13:16:10.570Z,16.44
2023-05-13T13:18:37.731Z,16.53
2023-05-13T13:21:05.933Z,16.64
2023-05-13T13:23:33.592Z,16.68
2023-05-13T13:26:00.820Z,16.71
2023-05-13T13:28:28.297Z,16.68
2023-05-13T13:30:55.461Z,16.61
2023-05-13T13:33:22.643Z,16.21
2023-05-13T13:35:49.870Z,16.48
2023-05-13T13:38:16.994Z,16.52
2023-05-13T13:40:44.098Z,16.35
2023-05-13T13:43:11.068Z,16.44
2023-05-13T13:45:38.197Z,16.22
2023-05-13T13:48:05.963Z,15.42
2023-05-13T13:50:33.045Z,16.45
2023-05-13T13:52:59.991Z,16.06
2023-05-13T13:55:27.279Z,16.44
2023-05-13T13:57:54.301Z,16.42
2023-05-13T14:00:21.601Z,16.43
2023-05-13T14:02:49.120Z,16.13
2023-05-13T14:05:16.555Z,16.38
2023-05-13T14:07:43.498Z,16.48
2023-05-13T14:10:10.815Z,16.55
2023-05-13T14:12:38.569Z,16.29
2023-05-13T14:15:06.829Z,16.63
2023-05-13T14:17:34.134Z,16.45
2023-05-13T14:20:01.429Z,16.63
2023-05-13T14:22:28.508Z,16.77
2023-05-13T14:24:55.576Z,16.74
2023-05-13T14:27:24.868Z,16.45
2023-05-13T14:29:52.168Z,16.56
2023-05-13T14:32:19.262Z,16.75
2023-05-13T14:34:46.468Z,16.82
2023-05-13T14:37:13.567Z,16.88
2023-05-13T14:39:40.812Z,16.57
2023-05-13T14:42:07.888Z,16.80
2023-05-13T14:44:34.939Z,16.29
2023-05-13T14:47:02.202Z,16.54
2023-05-13T14:49:29.378Z,16.11
2023-05-13T14:51:56.543Z,16.45
2023-05-13T14:54:23.646Z,16.44
2023-05-13T14:56:52.346Z,16.48
2023-05-13T14:59:19.763Z,16.61
2023-05-13T15:01:46.884Z,16.43
2023-05-13T15:04:14.062Z,16.37
2023-05-13T15:06:41.165Z,16.58
2023-05-13T15:09:08.633Z,16.27
2023-05-13T15:11:36.537Z,16.36
2023-05-13T15:14:03.549Z,15.99
2023-05-13T15:16:30.895Z,16.00
2023-05-13T15:18:58.073Z,15.74
2023-05-13T15:21:25.208Z,16.14
2023-05-13T15:23:52.276Z,16.42
2023-05-13T15:26:19.575Z,15.61
2023-05-13T15:28:46.689Z,16.01
2023-05-13T15:31:13.916Z,16.20
2023-05-13T15:33:42.779Z,16.03
2023-05-13T15:36:11.759Z,15.72
2023-05-13T15:38:39.242Z,16.15
2023-05-13T15:41:06.391Z,16.00
2023-05-13T15:43:34.369Z,15.80
2023-05-13T15:46:02.067Z,15.99
2023-05-13T15:48:31.627Z,15.64
2023-05-13T15:50:58.807Z,15.77
2023-05-13T15:53:25.861Z,15.94
2023-05-13T15:55:53.017Z,15.69
2023-05-13T15:58:20.018Z,15.86
2023-05-13T16:00:47.176Z,15.82
2023-05-13T16:03:14.238Z,15.73
2023-05-13T16:05:41.311Z,15.72
2023-05-13T16:08:08.327Z,15.29
2023-05-13T16:10:35.956Z,15.37
2023-05-13T16:13:03.176Z,15.31
2023-05-13T16:15:30.212Z,15.47
2023-05-13T16:17:57.523Z,15.46
2023-05-13T16:20:24.790Z,15.57
2023-05-13T16:22:52.287Z,15.31
2023-05-13T16:25:19.440Z,15.52
2023-05-13T16:27:47.543Z,15.48
2023-05-13T16:30:14.888Z,15.31
2023-05-13T16:32:42.110Z,15.32
2023-05-13T16:35:11.827Z,14.71
2023-05-13T16:37:38.933Z,14.59
2023-05-13T16:40:06.774Z,14.96
2023-05-13T16:42:33.904Z,14.91
2023-05-13T16:45:00.988Z,14.57
2023-05-13T16:47:28.405Z,14.78
2023-05-13T16:49:56.433Z,14.83
2023-05-13T16:52:24.787Z,14.83
2023-05-13T16:54:53.933Z,14.52
2023-05-13T16:57:23.726Z,15.12
2023-05-13T16:59:50.846Z,14.87
2023-05-13T17:02:18.003Z,14.68
2023-05-13T17:04:45.024Z,14.95
2023-05-13T17:07:12.138Z,15.15
2023-05-13T17:09:39.249Z,14.95
2023-05-13T17:12:06.659Z,15.15
2023-05-13T17:14:33.667Z,14.80
2023-05-13T17:17:00.907Z,14.88
2023-05-13T17:19:28.117Z,15.06
2023-05-13T17:21:55.204Z,14.83
2023-05-13T17:24:29.213Z,14.84
2023-05-13T17:26:56.765Z,15.09
2023-05-13T17:29:25.740Z,15.10
2023-05-13T17:31:52.983Z,15.06
2023-05-13T17:34:20.339Z,14.99
2023-05-13T17:36:49.944Z,15.13
2023-05-13T17:39:17.414Z,15.19
2023-05-13T17:41:44.532Z,14.94
2023-05-13T17:44:11.671Z,14.95
2023-05-13T17:46:38.751Z,14.99
2023-05-13T17:49:05.818Z,14.93
2023-05-13T17:51:32.923Z,14.70
2023-05-13T17:53:59.995Z,14.91
2023-05-13T17:56:27.110Z,14.61
2023-05-13T17:58:54.142Z,14.59
2023-05-13T18:01:22.009Z,14.57
2023-05-13T18:03:48.996Z,14.38
2023-05-13T18:06:16.485Z,14.72
2023-05-13T18:08:43.617Z,14.64
2023-05-13T18:11:10.667Z,14.59
2023-05-13T18:13:37.751Z,14.58
2023-05-13T18:16:06.206Z,14.08
2023-05-13T18:18:33.400Z,13.91
2023-05-13T18:21:00.639Z,14.58
2023-05-13T18:23:27.571Z,14.32
2023-05-13T18:25:56.273Z,14.60
2023-05-13T18:28:23.793Z,14.66
2023-05-13T18:30:50.787Z,14.55
2023-05-13T18:33:20.398Z,14.45
2023-05-13T18:35:47.664Z,14.51
2023-05-13T18:38:14.712Z,14.45
2023-05-13T18:40:41.778Z,13.64
2023-05-13T18:43:08.782Z,14.16
2023-05-13T18:45:35.894Z,14.16
2023-05-13T18:48:03.138Z,13.75
2023-05-13T18:50:30.447Z,13.53
2023-05-13T18:52:57.634Z,14.14
2023-05-13T18:55:24.595Z,14.06
2023-05-13T18:57:51.707Z,13.81
2023-05-13T19:00:19.529Z,14.05
2023-05-13T19:02:46.657Z,14.02
2023-05-13T19:05:13.900Z,13.81
2023-05-13T19:07:41.050Z,13.64
2023-05-13T19:10:08.089Z,13.52
2023-05-13T19:12:35.156Z,13.47
2023-05-13T19:15:02.170Z,13.66
2023-05-13T19:17:29.320Z,13.45
2023-05-13T19:19:57.574Z,13.60
2023-05-13T19:22:24.642Z,13.57
2023-05-13T19:24:51.631Z,13.37
2023-05-13T19:27:18.944Z,13.45
2023-05-13T19:29:46.217Z,13.34
2023-05-13T19:32:13.308Z,13.45
2023-05-13T19:34:42.391Z,13.07
2023-05-13T19:37:09.558Z,13.46
2023-05-13T19:39:36.494Z,13.18
2023-05-13T19:42:04.065Z,13.38
2023-05-13T19:44:32.116Z,12.98
2023-05-13T19:46:59.362Z,13.24
2023-05-13T19:49:26.891Z,13.04
2023-05-13T19:51:54.492Z,12.98
2023-05-13T19:54:21.729Z,12.72
2023-05-13T19:56:49.058Z,12.45
2023-05-13T19:59:16.261Z,12.85
2023-05-13T20:01:43.287Z,12.98
2023-05-13T20:04:10.424Z,13.27
2023-05-13T20:06:37.612Z,12.96
2023-05-13T20:09:04.957Z,13.13
2023-05-13T20:11:32.246Z,12.74
2023-05-13T20:13:59.750Z,13.19
2023-05-13T20:16:27.180Z,13.23
2023-05-13T20:18:54.728Z,13.10
2023-05-13T20:21:21.865Z,12.98
2023-05-13T20:23:49.031Z,13.01
2023-05-13T20:26:16.040Z,12.57
2023-05-13T20:28:45.198Z,12.99
2023-05-13T20:31:12.229Z,12.39
2023-05-13T20:33:39.327Z,12.63
2023-05-13T20:36:06.947Z,13.06
2023-05-13T20:38:34.084Z,12.76
2023-05-13T20:41:01.139Z,13.06
2023-05-13T20:43:28.256Z,12.36
2023-05-13T20:45:55.260Z,12.01
2023-05-13T20:48:22.815Z,12.59
2023-05-13T20:50:49.928Z,12.51
2023-05-13T20:53:17.093Z,12.88
2023-05-13T20:55:44.330Z,12.92
2023-05-13T20:58:12.303Z,12.89
2023-05-13T21:00:39.370Z,12.90
2023-05-13T21:03:06.914Z,12.90
2023-05-13T21:05:34.215Z,12.79
2023-05-13T21:08:01.467Z,12.32
2023-05-13T21:10:28.552Z,12.81
2023-05-13T21:12:55.688Z,12.83
2023-05-13T21:15:22.804Z,12.74
2023-05-13T21:17:50.008Z,12.46
2023-05-13T21:20:17.738Z,12.69
2023-05-13T21:22:44.959Z,12.72
2023-05-13T21:25:12.161Z,12.38
2023-05-13T21:27:39.776Z,12.34
2023-05-13T21:30:07.618Z,12.64
2023-05-13T21:32:34.726Z,12.61
2023-05-13T21:35:05.410Z,12.46
2023-05-13T21:37:32.478Z,12.65
2023-05-13T21:39:59.668Z,12.40
2023-05-13T21:42:27.279Z,12.35
2023-05-13T21:44:54.409Z,12.18
2023-05-13T21:47:22.752Z,12.44
2023-05-13T21:49:49.940Z,12.29
2023-05-13T21:52:17.481Z,12.29
2023-05-13T21:54:44.859Z,12.14
2023-05-13T21:57:12.312Z,12.40
2023-05-13T21:59:39.490Z,12.39
2023-05-13T22:02:06.757Z,12.33
2023-05-13T22:04:33.840Z,12.10
2023-05-13T22:07:02.267Z,12.44
2023-05-13T22:09:29.472Z,12.01
2023-05-13T22:11:56.789Z,11.79
2023-05-13T22:14:23.942Z,12.17
2023-05-13T22:17:07.160Z,11.98
2023-05-13T22:19:36.301Z,11.85
2023-05-13T22:22:03.647Z,12.30
2023-05-13T22:24:33.876Z,11.83
2023-05-13T22:27:01.060Z,11.67
2023-05-13T22:29:28.450Z,12.23
2023-05-13T22:31:57.690Z,11.78
2023-05-13T22:34:26.734Z,11.80
2023-05-13T22:36:54.598Z,12.34
2023-05-13T22:39:22.010Z,12.34
2023-05-13T22:41:49.280Z,11.84
2023-05-13T22:44:16.547Z,12.32
2023-05-13T22:46:43.681Z,12.02
2023-05-13T22:49:12.476Z,11.53
2023-05-13T22:51:39.621Z,12.23
2023-05-13T22:54:07.192Z,11.84
2023-05-13T22:56:34.458Z,12.21
2023-05-13T22:59:01.509Z,12.16
2023-05-13T23:01:28.808Z,12.15
2023-05-13T23:03:56.023Z,12.08
2023-05-13T23:06:23.070Z,12.01
2023-05-13T23:08:50.226Z,11.92
2023-05-13T23:11:17.398Z,11.87
2023-05-13T23:13:44.623Z,12.21
2023-05-13T23:16:11.883Z,12.23
2023-05-13T23:18:39.176Z,11.98
2023-05-13T23:21:09.291Z,12.05
2023-05-13T23:23:36.538Z,11.82
2023-05-13T23:26:06.052Z,11.62
2023-05-13T23:28:33.714Z,12.16
2023-05-13T23:31:01.151Z,12.17
2023-05-13T23:33:28.546Z,12.19
2023-05-13T23:35:56.518Z,11.70
2023-05-13T23:38:23.888Z,11.43
2023-05-13T23:40:51.155Z,11.95
2023-05-13T23:43:18.484Z,11.58
2023-05-13T23:45:46.688Z,11.57
2023-05-13T23:48:13.926Z,11.87
2023-05-13T23:50:43.967Z,11.40
2023-05-13T23:53:11.182Z,11.55
2023-05-13T23:55:38.314Z,11.98
2023-05-13T23:58:05.416Z,11.89
